Browns Hollow, New York
Current Conditions -  °F | °C
As of 10:15 PM on Thursday 27 Nov 2014 (Local Time) from KNY0 Reporting Station
Overcast Overcast  
Wind Chill: -8°   Ceiling: 6500
Heat Index: -4°   Visibility: 10mi
Dew Point: -6°   Wind: 5mph
Humidity: 92%   Direction: 260°W
Pressure: 30.03"   Gusts: NA
Location:  42.8548°N, 74.5942°W
Report Text: KNY0 280315Z AUTO 26004KT 10SM SCT048 BKN065 OVC075 M04/M06 A3003 RMK AO2 T10451056
Loading
Personal Weather Stations






























Interactive Weather Map New forecast layout! Learn more

10-Day Weather Forecast

Advertisements
Track Severe Weather on mobile